Time;durP1;ratioP1;P1;durP2;ratioP2;P2;SDS_P1;SDS_P2;PMS_P1;PMS_P2;Temp;Humidity;BMP_temperature;BMP_pressure;BME280_temperature;BME280_humidity;BME280_pressure;Samples;Min_cycle;Max_cycle;Signal;HPM_P1;HPM_P2
2023/10/06 00:04:14;;;;;;;12.07;5.43;;;;;;;12.52;83.80;101377.00;10265009;28;20057;-77
2023/10/06 00:09:28;;;;;;;10.05;5.38;;;;;;;12.48;83.83;101386.28;10260752;28;20051;-76
2023/10/06 00:14:39;;;;;;;15.15;7.00;;;;;;;12.45;84.06;101375.75;10255021;28;20185;-76
2023/10/06 00:19:47;;;;;;;21.58;9.88;;;;;;;12.31;84.63;101381.25;10257275;28;20413;-77
2023/10/06 00:24:51;;;;;;;19.63;10.10;;;;;;;12.32;84.54;101369.53;10261328;28;20676;-76
2023/10/06 00:29:57;;;;;;;24.15;9.93;;;;;;;12.23;84.72;101386.31;10264575;28;20050;-76
2023/10/06 00:35:08;;;;;;;22.15;9.70;;;;;;;12.17;84.74;101377.69;10265148;28;20066;-76
2023/10/06 00:40:19;;;;;;;19.13;8.20;;;;;;;12.17;84.25;101374.13;10260397;28;20046;-76
2023/10/06 00:45:24;;;;;;;17.83;8.20;;;;;;;12.11;84.97;101367.38;10271988;28;20047;-75
2023/10/06 00:50:32;;;;;;;16.75;7.10;;;;;;;12.07;84.60;101368.56;10265792;28;20165;-77
2023/10/06 00:55:35;;;;;;;14.50;6.50;;;;;;;11.98;85.07;101365.66;10255595;28;20156;-77
2023/10/06 01:00:39;;;;;;;13.63;5.50;;;;;;;11.97;85.04;101358.56;10257864;28;20047;-77
2023/10/06 01:05:47;;;;;;;13.57;5.22;;;;;;;11.84;85.85;101355.88;10260606;28;20051;-77
2023/10/06 01:11:06;;;;;;;11.55;5.22;;;;;;;11.75;86.24;101351.16;10271434;28;20053;-77
2023/10/06 01:16:11;;;;;;;16.40;5.30;;;;;;;11.71;86.00;101346.00;10265463;28;20046;-77
2023/10/06 01:21:17;;;;;;;9.70;4.20;;;;;;;11.78;85.42;101330.25;10256652;28;20050;-76
2023/10/06 01:26:24;;;;;;;9.25;4.28;;;;;;;11.81;84.64;101331.88;10262051;28;20074;-79
2023/10/06 01:31:27;;;;;;;13.93;4.35;;;;;;;11.87;84.21;101328.72;10261377;28;20105;-79
2023/10/06 01:36:30;;;;;;;14.02;5.10;;;;;;;11.88;83.78;101319.72;10264714;28;20206;-79
2023/10/06 01:41:35;;;;;;;6.30;3.67;;;;;;;11.89;83.45;101314.19;10250559;28;20598;-79
2023/10/06 01:46:38;;;;;;;10.32;4.18;;;;;;;11.80;83.77;101314.88;10257047;28;20057;-79
2023/10/06 01:51:42;;;;;;;11.50;4.45;;;;;;;11.81;83.93;101318.41;10278264;28;21204;-78
2023/10/06 01:56:58;;;;;;;7.15;3.83;;;;;;;11.81;83.68;101313.88;10261864;28;20057;-79
2023/10/06 02:02:02;;;;;;;7.40;3.80;;;;;;;11.74;84.19;101326.06;10247822;28;20057;-79
2023/10/06 02:07:09;;;;;;;11.07;4.50;;;;;;;11.62;84.89;101326.94;10257651;28;20055;-79
2023/10/06 02:12:15;;;;;;;9.80;4.05;;;;;;;11.72;84.35;101315.41;10257911;28;20288;-79
2023/10/06 02:17:18;;;;;;;11.68;4.10;;;;;;;11.64;84.66;101320.47;10254245;28;20061;-78
2023/10/06 02:22:21;;;;;;;9.55;3.78;;;;;;;11.61;84.83;101314.44;10253090;28;20074;-79
2023/10/06 02:27:27;;;;;;;9.20;4.10;;;;;;;11.55;85.17;101313.06;10251921;28;20058;-79
2023/10/06 02:32:35;;;;;;;14.57;5.55;;;;;;;11.53;85.27;101309.59;10254086;28;20055;-78
2023/10/06 02:37:39;;;;;;;11.70;4.30;;;;;;;11.54;85.16;101295.16;10257701;28;20860;-79
2023/10/06 02:42:52;;;;;;;11.60;4.60;;;;;;;11.54;85.34;101294.31;10256867;28;20054;-79
2023/10/06 02:47:57;;;;;;;12.90;5.13;;;;;;;11.43;86.23;101292.38;10257209;28;20047;-79
2023/10/06 02:53:00;;;;;;;8.68;4.05;;;;;;;11.53;85.67;101279.16;10252065;28;20051;-80
2023/10/06 02:58:05;;;;;;;12.15;4.93;;;;;;;11.54;85.65;101286.25;10261773;28;20065;-79
2023/10/06 03:03:17;;;;;;;13.82;4.60;;;;;;;11.37;86.62;101282.91;10257012;28;20129;-79
2023/10/06 03:08:22;;;;;;;9.48;4.00;;;;;;;11.50;85.85;101278.38;10261216;28;20568;-78
2023/10/06 03:13:32;;;;;;;12.60;5.28;;;;;;;11.36;86.94;101277.66;10259457;28;20400;-79
2023/10/06 03:18:36;;;;;;;10.13;4.70;;;;;;;11.45;86.49;101266.25;10290341;28;20047;-78
2023/10/06 03:23:39;;;;;;;11.63;4.55;;;;;;;11.42;86.84;101264.63;10267657;28;20063;-79
2023/10/06 03:28:43;;;;;;;12.98;4.53;;;;;;;11.50;86.40;101256.88;10263909;28;20062;-79
2023/10/06 03:33:54;;;;;;;12.10;5.05;;;;;;;11.60;85.79;101266.97;10265505;28;20047;-78
2023/10/06 03:39:05;;;;;;;9.00;4.63;;;;;;;11.52;86.20;101296.25;10264112;28;20086;-79
2023/10/06 03:44:12;;;;;;;16.33;6.55;;;;;;;11.51;86.79;101298.09;10264420;28;20064;-78
2023/10/06 03:49:15;;;;;;;10.25;4.80;;;;;;;11.55;86.53;101291.53;10255524;28;20050;-79
2023/10/06 03:54:18;;;;;;;12.52;5.03;;;;;;;11.53;86.55;101269.25;10264555;28;20061;-79
2023/10/06 03:59:23;;;;;;;10.48;5.30;;;;;;;11.52;86.72;101270.22;10255733;28;20050;-78
2023/10/06 04:04:26;;;;;;;18.52;5.72;;;;;;;11.59;86.27;101276.00;10261213;28;20148;-78
2023/10/06 04:09:31;;;;;;;14.88;5.25;;;;;;;11.50;86.84;101274.84;10265639;28;20060;-79
2023/10/06 04:14:35;;;;;;;14.48;5.70;;;;;;;11.54;86.33;101270.09;10252976;28;20058;-79
2023/10/06 04:19:38;;;;;;;14.23;5.53;;;;;;;11.42;86.87;101270.00;10264676;28;20065;-78
2023/10/06 04:24:41;;;;;;;13.27;4.82;;;;;;;11.43;86.99;101258.25;10263937;28;20505;-78
2023/10/06 04:29:46;;;;;;;13.68;5.20;;;;;;;11.30;87.98;101245.78;10266465;28;20043;-79
2023/10/06 04:34:52;;;;;;;12.85;5.70;;;;;;;11.41;86.88;101238.69;10258413;28;20058;-79
2023/10/06 04:39:55;;;;;;;12.70;4.88;;;;;;;11.38;87.18;101232.66;10260009;28;20130;-78
2023/10/06 04:44:59;;;;;;;6.15;4.40;;;;;;;11.26;87.12;101235.25;10261125;28;20057;-79
2023/10/06 04:50:02;;;;;;;10.68;4.88;;;;;;;11.19;88.14;101250.13;10267002;28;20483;-79
2023/10/06 04:55:11;;;;;;;13.77;5.20;;;;;;;11.38;86.68;101238.94;10265015;28;20712;-79
2023/10/06 05:00:19;;;;;;;11.52;4.60;;;;;;;11.27;87.49;101242.38;10267797;28;21242;-78
2023/10/06 05:05:22;;;;;;;12.57;5.15;;;;;;;11.30;86.86;101235.91;10261483;28;20133;-78
2023/10/06 05:10:31;;;;;;;15.27;6.00;;;;;;;11.37;86.62;101228.25;10254879;28;20047;-79
2023/10/06 05:15:36;;;;;;;8.52;4.35;;;;;;;11.27;87.16;101238.78;10257947;28;20066;-79
2023/10/06 05:20:39;;;;;;;8.85;4.65;;;;;;;11.36;86.56;101243.53;10252202;28;20062;-78
2023/10/06 05:25:44;;;;;;;13.27;5.03;;;;;;;11.46;85.82;101241.94;10264260;28;20054;-79
2023/10/06 05:30:50;;;;;;;20.52;5.35;;;;;;;11.39;86.28;101242.47;10292676;28;20099;-78
2023/10/06 05:35:53;;;;;;;9.40;4.88;;;;;;;11.41;86.34;101240.50;10264790;28;20055;-79
2023/10/06 05:40:59;;;;;;;18.75;5.65;;;;;;;11.47;86.19;101250.84;10259526;28;20039;-78
2023/10/06 05:46:05;;;;;;;11.90;5.57;;;;;;;11.53;85.60;101257.63;10257662;28;20073;-79
2023/10/06 05:51:09;;;;;;;10.43;4.80;;;;;;;11.42;86.40;101245.78;10261594;28;20186;-78
2023/10/06 05:56:15;;;;;;;12.02;4.45;;;;;;;11.53;86.62;101236.97;10258521;28;20051;-79
2023/10/06 06:01:21;;;;;;;9.77;4.70;;;;;;;11.58;86.92;101244.72;10253346;28;20066;-79
2023/10/06 06:06:24;;;;;;;14.75;4.22;;;;;;;11.45;87.80;101239.34;10260596;28;20058;-79
2023/10/06 06:11:28;;;;;;;11.30;4.50;;;;;;;11.74;86.86;101239.94;10253622;28;20046;-78
2023/10/06 06:16:32;;;;;;;12.27;4.32;;;;;;;11.97;85.41;101234.69;10258350;28;20059;-79
2023/10/06 06:21:35;;;;;;;13.88;4.70;;;;;;;12.07;84.67;101224.97;10260913;28;20090;-79
2023/10/06 06:26:39;;;;;;;12.13;4.93;;;;;;;11.88;85.39;101231.72;10258903;28;20101;-79
2023/10/06 06:31:44;;;;;;;5.90;3.17;;;;;;;12.43;82.48;101225.94;10259571;28;20059;-79
2023/10/06 06:36:49;;;;;;;8.32;3.85;;;;;;;12.49;82.29;101220.06;10271459;28;20141;-79
2023/10/06 06:41:53;;;;;;;7.53;4.40;;;;;;;12.40;82.61;101240.50;10264600;28;20050;-79
2023/10/06 06:46:58;;;;;;;13.18;4.35;;;;;;;12.61;81.61;101219.13;10252140;28;20050;-77
2023/10/06 06:52:01;;;;;;;6.60;4.00;;;;;;;12.63;81.61;101233.34;10251870;28;20058;-79
2023/10/06 06:57:04;;;;;;;10.75;4.22;;;;;;;12.90;80.14;101226.81;10255437;28;20060;-78
2023/10/06 07:02:09;;;;;;;6.32;3.80;;;;;;;13.26;78.42;101231.16;10258985;28;20051;-79
2023/10/06 07:07:13;;;;;;;6.07;2.90;;;;;;;13.19;78.03;101227.22;10253094;28;20053;-79
2023/10/06 07:12:16;;;;;;;6.70;2.80;;;;;;;12.79;79.85;101227.63;10253148;28;20047;-78
2023/10/06 07:17:21;;;;;;;8.15;3.67;;;;;;;13.29;78.45;101220.13;10249873;28;20051;-79
2023/10/06 07:22:29;;;;;;;5.90;3.22;;;;;;;13.16;78.08;101203.19;10256472;28;20146;-79
2023/10/06 07:27:34;;;;;;;5.70;2.35;;;;;;;13.08;77.82;101206.47;10254955;28;20057;-78
2023/10/06 07:32:42;;;;;;;8.88;3.35;;;;;;;13.48;76.25;101209.59;10252454;28;20097;-78
2023/10/06 07:37:47;;;;;;;8.07;3.17;;;;;;;13.78;75.46;101210.81;10256350;28;20047;-78
2023/10/06 07:42:52;;;;;;;9.40;3.22;;;;;;;13.97;74.03;101202.06;10283789;28;20058;-78
2023/10/06 07:47:56;;;;;;;8.35;3.20;;;;;;;14.10;73.52;101196.50;10276622;28;21275;-78
2023/10/06 07:53:00;;;;;;;8.88;3.58;;;;;;;14.06;73.48;101197.72;10262030;28;20062;-79
2023/10/06 07:58:05;;;;;;;5.90;2.88;;;;;;;14.64;71.10;101216.31;10257193;28;20537;-79
2023/10/06 08:03:10;;;;;;;11.05;3.17;;;;;;;14.42;72.46;101207.31;10262895;28;20541;-80
2023/10/06 08:08:14;;;;;;;8.02;3.20;;;;;;;14.28;71.98;101199.50;10272646;28;20145;-78
2023/10/06 08:13:18;;;;;;;6.80;3.28;;;;;;;14.96;69.57;101203.59;10269737;28;20047;-80
2023/10/06 08:18:22;;;;;;;10.02;3.38;;;;;;;15.23;69.25;101200.31;10262836;28;20414;-78
2023/10/06 08:23:25;;;;;;;9.00;2.70;;;;;;;15.21;68.20;101194.19;10262444;28;20070;-80
2023/10/06 08:28:31;;;;;;;8.65;2.97;;;;;;;14.59;70.86;101187.84;10259213;28;20050;-78
2023/10/06 08:33:36;;;;;;;5.43;2.47;;;;;;;14.60;70.95;101188.69;10260526;28;20046;-78
2023/10/06 08:38:39;;;;;;;6.28;2.33;;;;;;;14.23;71.86;101174.69;10261566;28;20133;-78
2023/10/06 08:43:44;;;;;;;8.95;3.00;;;;;;;14.72;70.68;101184.06;10261540;28;20047;-79
2023/10/06 08:48:51;;;;;;;6.68;2.80;;;;;;;14.54;71.54;101211.69;10257512;28;20053;-78
2023/10/06 08:53:57;;;;;;;11.40;3.28;;;;;;;14.30;72.95;101200.22;10254674;28;20476;-79
2023/10/06 08:59:00;;;;;;;8.63;2.80;;;;;;;14.41;72.59;101202.06;10258859;28;20061;-79
2023/10/06 09:04:09;;;;;;;9.70;2.95;;;;;;;14.77;71.80;101209.72;10257763;28;20058;-79
2023/10/06 09:09:26;;;;;;;6.07;2.50;;;;;;;14.90;70.24;101216.81;10259373;28;20047;-78
2023/10/06 09:14:29;;;;;;;9.82;2.80;;;;;;;15.29;69.95;101196.22;10252980;28;20057;-77
2023/10/06 09:19:49;;;;;;;6.47;2.50;;;;;;;15.14;69.37;101219.19;10258976;28;20051;-77
2023/10/06 09:25:02;;;;;;;4.97;2.50;;;;;;;15.90;66.54;101176.34;10269298;28;20264;-78
2023/10/06 09:30:07;;;;;;;8.93;2.83;;;;;;;15.86;67.00;101175.78;10258706;28;20065;-79
2023/10/06 09:35:22;;;;;;;7.47;3.28;;;;;;;15.42;68.02;101172.50;10256177;28;20046;-78
2023/10/06 09:40:27;;;;;;;3.67;2.00;;;;;;;15.69;66.60;101173.75;10256187;28;20055;-79
2023/10/06 09:45:30;;;;;;;5.45;2.10;;;;;;;16.06;66.25;101173.94;10292071;28;20057;-77
2023/10/06 09:50:40;;;;;;;7.18;2.30;;;;;;;16.66;64.50;101175.69;10290618;28;20062;-77
2023/10/06 09:55:44;;;;;;;9.85;2.33;;;;;;;16.78;62.61;101155.50;10280188;28;20169;-77
2023/10/06 10:00:49;;;;;;;6.97;2.25;;;;;;;16.62;62.62;101149.84;10261618;28;20177;-78
2023/10/06 10:05:54;;;;;;;4.88;2.28;;;;;;;16.06;62.99;101149.53;10252670;28;20494;-78
2023/10/06 10:11:01;;;;;;;6.57;2.22;;;;;;;15.76;63.80;101147.78;10255327;28;20061;-78
2023/10/06 10:16:17;;;;;;;5.53;1.70;;;;;;;16.04;61.96;101147.97;10252444;28;20053;-77
2023/10/06 10:21:22;;;;;;;3.13;1.48;;;;;;;15.53;64.61;101125.53;10254170;28;20061;-78
2023/10/06 10:26:28;;;;;;;8.98;2.45;;;;;;;15.69;64.04;101120.44;10253598;28;20078;-78
2023/10/06 10:31:37;;;;;;;6.00;2.53;;;;;;;15.62;64.52;101110.28;10253582;28;20129;-78
2023/10/06 10:37:17;;;;;;;5.65;2.40;;;;;;;15.74;63.94;101133.53;10257113;28;20149;-78
2023/10/06 10:42:23;;;;;;;7.00;2.15;;;;;;;16.33;62.00;101129.03;10251517;28;20189;-78
2023/10/06 10:47:26;;;;;;;6.47;2.72;;;;;;;16.98;60.27;101129.19;10256128;28;20043;-78
2023/10/06 10:52:31;;;;;;;6.47;1.88;;;;;;;17.07;58.48;101128.28;10254895;28;20429;-78
2023/10/06 10:57:35;;;;;;;6.55;2.40;;;;;;;16.90;61.09;101119.06;10250273;28;20058;-77
2023/10/06 11:02:40;;;;;;;5.90;2.03;;;;;;;18.41;55.90;101134.06;10253576;28;20186;-78
2023/10/06 11:07:55;;;;;;;7.35;2.75;;;;;;;18.74;55.12;101095.19;10253880;28;20096;-77
2023/10/06 11:13:18;;;;;;;5.95;2.65;;;;;;;18.56;55.79;101091.66;10254496;28;20533;-78
2023/10/06 11:18:22;;;;;;;5.97;2.20;;;;;;;18.92;54.50;101099.72;10252318;28;20142;-78
2023/10/06 11:23:42;;;;;;;9.60;2.70;;;;;;;18.87;54.60;101083.91;10251858;28;20551;-78
2023/10/06 11:28:44;;;;;;;7.93;2.45;;;;;;;18.93;54.24;101066.91;10255495;28;20426;-78
2023/10/06 11:33:49;;;;;;;5.15;1.70;;;;;;;18.15;54.64;101091.34;10254449;28;20054;-78
2023/10/06 11:38:53;;;;;;;5.75;2.70;;;;;;;18.97;52.67;101078.31;10251427;28;20116;-78
2023/10/06 11:43:58;;;;;;;8.40;2.92;;;;;;;18.62;53.55;101080.13;10260809;28;20414;-78
2023/10/06 11:49:10;;;;;;;6.47;2.50;;;;;;;19.46;50.99;101049.41;10262341;28;21287;-79
2023/10/06 11:54:15;;;;;;;7.65;2.42;;;;;;;20.23;50.30;101043.69;10262187;28;20185;-78
2023/10/06 11:59:22;;;;;;;8.13;2.90;;;;;;;20.03;50.34;101024.09;10261721;28;20047;-78
2023/10/06 12:04:30;;;;;;;8.75;2.58;;;;;;;18.55;52.44;101030.09;10264529;28;20395;-79
2023/10/06 12:09:35;;;;;;;5.97;2.65;;;;;;;19.28;52.61;101017.84;10287856;28;20050;-78
2023/10/06 12:14:38;;;;;;;10.13;2.42;;;;;;;19.46;52.55;101022.16;10256791;28;20073;-78
2023/10/06 12:19:42;;;;;;;6.82;2.40;;;;;;;19.25;51.15;101013.59;10257097;28;20051;-77
2023/10/06 12:24:46;;;;;;;6.15;2.20;;;;;;;18.83;51.38;101000.00;10260793;28;20047;-77
2023/10/06 12:29:49;;;;;;;5.15;2.65;;;;;;;19.39;51.44;100993.00;10268514;28;20226;-77
2023/10/06 12:34:52;;;;;;;4.28;2.00;;;;;;;19.63;51.92;100993.09;10265585;28;20058;-78
2023/10/06 12:39:57;;;;;;;3.55;1.80;;;;;;;18.67;52.04;100992.59;10282692;28;20046;-77
2023/10/06 12:45:02;;;;;;;6.47;2.70;;;;;;;18.39;54.15;101021.84;10300083;28;20051;-78
2023/10/06 12:50:08;;;;;;;5.85;2.38;;;;;;;17.66;56.33;100995.75;10270264;28;20047;-78
2023/10/06 12:55:12;;;;;;;7.10;2.70;;;;;;;17.91;56.16;100994.13;10274925;28;20082;-77
2023/10/06 13:00:16;;;;;;;8.02;2.97;;;;;;;18.33;54.71;100983.41;10269501;28;20074;-78
2023/10/06 13:05:22;;;;;;;10.18;2.65;;;;;;;18.30;55.06;100970.13;10268975;28;21001;-78
2023/10/06 13:10:27;;;;;;;6.85;2.97;;;;;;;17.88;56.62;100978.09;10247760;28;20057;-78
2023/10/06 13:15:30;;;;;;;4.90;2.60;;;;;;;18.27;56.23;100972.31;10261759;28;20043;-77
2023/10/06 13:20:33;;;;;;;7.72;2.78;;;;;;;17.92;56.76;100955.91;10260409;28;20058;-78
2023/10/06 13:25:38;;;;;;;5.00;2.03;;;;;;;17.44;55.59;100964.47;10257198;28;20128;-77
2023/10/06 13:30:41;;;;;;;10.23;2.38;;;;;;;17.33;57.33;100965.56;10254975;28;20054;-78
2023/10/06 13:35:47;;;;;;;6.60;3.10;;;;;;;17.72;57.22;100961.66;10254800;28;20050;-77
2023/10/06 13:40:52;;;;;;;7.38;2.67;;;;;;;17.19;58.29;100975.09;10254939;28;20430;-78
2023/10/06 13:45:57;;;;;;;6.22;2.72;;;;;;;17.22;58.51;100946.78;10251607;28;20154;-78
2023/10/06 13:51:02;;;;;;;13.60;3.42;;;;;;;17.67;57.98;100949.44;10252953;28;20061;-77
2023/10/06 14:03:08;;;;;;;9.73;2.22;;;;;;;17.62;57.71;100965.34;10308324;28;20042;-78
2023/10/06 14:08:13;;;;;;;7.28;2.67;;;;;;;17.14;60.65;100954.84;10285441;28;20054;-76
2023/10/06 14:13:24;;;;;;;9.70;3.38;;;;;;;16.94;60.10;100941.38;10277038;28;20110;-77
2023/10/06 14:18:32;;;;;;;7.70;2.72;;;;;;;17.07;60.58;100937.47;10278813;28;20101;-77
2023/10/06 14:23:39;;;;;;;8.27;3.90;;;;;;;17.47;59.63;100935.16;10292149;28;20057;-78
2023/10/06 14:28:44;;;;;;;8.38;2.92;;;;;;;17.09;60.95;100946.31;10269428;28;20046;-77
2023/10/06 14:33:57;;;;;;;9.85;2.83;;;;;;;17.68;59.50;100931.25;10276085;28;20050;-78
2023/10/06 14:49:58;;;;;;;10.13;3.35;;;;;;;19.24;54.90;100911.97;10211944;28;20133;-78
2023/10/06 14:55:03;;;;;;;10.20;2.55;;;;;;;18.61;56.31;100914.34;10251248;28;20599;-78
2023/10/06 15:00:09;;;;;;;7.10;2.60;;;;;;;18.61;56.66;100903.47;10245163;28;20137;-79
2023/10/06 15:05:15;;;;;;;8.90;3.08;;;;;;;18.37;57.29;100910.47;10246850;28;20109;-78
2023/10/06 15:10:18;;;;;;;8.68;2.88;;;;;;;18.21;58.52;100907.69;10254544;28;20062;-79
2023/10/06 15:15:22;;;;;;;6.45;2.72;;;;;;;18.29;57.74;100908.59;10273724;28;20134;-77
2023/10/06 15:20:26;;;;;;;8.02;3.03;;;;;;;18.10;58.53;100901.53;10249659;28;20074;-78
2023/10/06 15:25:30;;;;;;;7.88;2.67;;;;;;;17.69;59.10;100903.94;10248958;28;20099;-79
2023/10/06 15:30:40;;;;;;;9.23;2.97;;;;;;;17.71;59.75;100909.19;10250019;28;20710;-77
2023/10/06 15:35:44;;;;;;;7.40;3.05;;;;;;;17.58;60.05;100897.88;10242870;28;21235;-79
2023/10/06 15:40:48;;;;;;;8.10;3.42;;;;;;;17.43;60.42;100894.91;10260882;28;20066;-77
2023/10/06 15:45:56;;;;;;;5.30;2.20;;;;;;;16.92;61.72;100901.81;10243587;28;20125;-78
2023/10/06 15:51:02;;;;;;;6.68;3.03;;;;;;;17.06;62.05;100911.31;10253101;28;20044;-79
2023/10/06 15:56:08;;;;;;;5.97;2.67;;;;;;;17.10;61.78;100893.72;10253433;28;20051;-79
2023/10/06 16:01:13;;;;;;;9.55;2.78;;;;;;;16.88;62.60;100893.16;10257851;28;20058;-77
2023/10/06 16:06:20;;;;;;;8.50;2.65;;;;;;;17.06;62.26;100876.91;10248260;28;20777;-78
2023/10/06 16:11:23;;;;;;;7.22;3.50;;;;;;;17.11;63.17;100879.97;10254745;28;20047;-79
2023/10/06 16:16:26;;;;;;;5.95;3.25;;;;;;;16.98;63.31;100883.09;10254212;28;20055;-79
2023/10/06 16:21:31;;;;;;;6.03;2.60;;;;;;;16.78;63.88;100895.06;10252664;28;20128;-78
2023/10/06 16:26:34;;;;;;;7.18;2.88;;;;;;;16.79;63.81;100891.38;10248033;28;20051;-78
2023/10/06 16:31:37;;;;;;;8.85;2.90;;;;;;;16.91;64.09;100892.84;10254667;28;20043;-77
2023/10/06 16:36:42;;;;;;;7.32;3.58;;;;;;;16.80;64.38;100882.22;10248398;28;20051;-79
2023/10/06 16:41:45;;;;;;;11.75;3.30;;;;;;;16.76;64.91;100876.25;10242369;28;20680;-78
2023/10/06 16:46:49;;;;;;;4.68;2.13;;;;;;;16.45;65.33;100854.00;10234282;28;20130;-78
2023/10/06 16:51:53;;;;;;;2.15;1.27;;;;;;;16.29;66.40;100867.34;10244447;28;20078;-78
2023/10/06 16:56:56;;;;;;;8.98;2.55;;;;;;;16.48;65.63;100874.53;10246202;28;20061;-78
2023/10/06 17:01:59;;;;;;;6.40;3.08;;;;;;;16.54;65.38;100882.94;10251223;28;20082;-77
2023/10/06 17:07:04;;;;;;;8.80;2.70;;;;;;;16.74;64.96;100869.28;10259570;28;20158;-75
2023/10/06 17:12:09;;;;;;;13.80;3.28;;;;;;;16.34;66.48;100870.47;10268331;28;20050;-78
2023/10/06 17:17:13;;;;;;;10.32;4.15;;;;;;;16.17;67.39;100877.53;10261819;28;20192;-78
2023/10/06 17:22:17;;;;;;;6.88;2.85;;;;;;;16.33;66.83;100893.19;10252900;28;20053;-78
2023/10/06 17:27:20;;;;;;;9.27;3.20;;;;;;;16.42;66.77;100875.16;10244849;28;20067;-78
2023/10/06 17:32:26;;;;;;;8.68;3.17;;;;;;;16.09;68.42;100875.53;10241794;28;20106;-78
2023/10/06 17:37:33;;;;;;;10.77;2.72;;;;;;;16.18;68.16;100875.66;10236812;28;20055;-78
2023/10/06 17:42:37;;;;;;;5.65;3.38;;;;;;;16.25;67.78;100866.78;10235898;28;20553;-78
2023/10/06 17:47:40;;;;;;;6.50;3.05;;;;;;;16.13;68.08;100892.38;10238347;28;20050;-76
2023/10/06 17:52:44;;;;;;;8.63;3.58;;;;;;;16.28;67.88;100879.22;10237681;28;20047;-76
2023/10/06 17:57:47;;;;;;;8.38;2.70;;;;;;;16.03;68.29;100870.72;10235061;28;21133;-76
2023/10/06 18:02:50;;;;;;;9.00;3.55;;;;;;;16.09;68.77;100875.53;10230418;28;20054;-76
2023/10/06 18:07:55;;;;;;;15.15;3.65;;;;;;;15.90;69.66;100879.16;10236227;28;20058;-77
2023/10/06 18:12:58;;;;;;;6.93;3.30;;;;;;;15.97;70.01;100871.31;10232049;28;20190;-77
2023/10/06 18:18:01;;;;;;;9.80;4.03;;;;;;;15.87;70.28;100856.94;10240242;28;20051;-78
2023/10/06 18:23:06;;;;;;;11.30;4.03;;;;;;;15.82;70.56;100861.94;10243126;28;20061;-77
2023/10/06 18:28:09;;;;;;;8.82;3.72;;;;;;;16.05;69.77;100857.91;10245775;28;20963;-78
2023/10/06 18:33:12;;;;;;;4.40;1.60;;;;;;;15.56;71.40;100853.63;10251956;28;20054;-78
2023/10/06 18:38:17;;;;;;;8.30;3.35;;;;;;;15.93;70.26;100854.53;10255717;28;20053;-78
2023/10/06 18:43:20;;;;;;;11.25;3.65;;;;;;;15.52;71.77;100872.00;10237157;28;20058;-78
2023/10/06 18:48:23;;;;;;;8.50;3.67;;;;;;;15.53;71.82;100857.47;10241662;28;20094;-77
2023/10/06 18:53:29;;;;;;;7.30;2.95;;;;;;;15.18;73.22;100871.56;10235260;28;20054;-77
2023/10/06 18:58:32;;;;;;;11.18;3.70;;;;;;;15.43;71.94;100876.41;10252545;28;20121;-78
2023/10/06 19:03:36;;;;;;;11.32;4.30;;;;;;;15.44;71.27;100866.44;10249735;28;20047;-78
2023/10/06 19:08:47;;;;;;;10.27;4.18;;;;;;;15.46;71.55;100883.41;10246751;28;20079;-76
2023/10/06 19:13:50;;;;;;;9.15;3.85;;;;;;;15.34;72.62;100880.00;10248323;28;20062;-77
2023/10/06 19:18:53;;;;;;;11.82;3.85;;;;;;;15.14;72.49;100865.59;10254733;28;20831;-77
2023/10/06 19:23:59;;;;;;;8.35;2.75;;;;;;;15.36;72.29;100875.31;10251979;28;20054;-77
2023/10/06 19:29:02;;;;;;;8.75;3.67;;;;;;;15.52;71.88;100874.69;10253675;28;21188;-77
2023/10/06 19:34:05;;;;;;;12.30;3.40;;;;;;;14.96;74.21;100873.56;10257316;28;20135;-78
2023/10/06 19:39:10;;;;;;;9.05;3.63;;;;;;;15.09;74.46;100883.25;10262583;28;20070;-79
2023/10/06 19:44:13;;;;;;;12.07;4.35;;;;;;;15.11;74.28;100881.25;10263609;28;20053;-78
2023/10/06 19:49:17;;;;;;;10.00;3.88;;;;;;;14.93;74.91;100886.50;10255060;28;20071;-78
2023/10/06 19:54:21;;;;;;;7.38;3.88;;;;;;;15.10;74.97;100879.53;10247822;28;20064;-78
2023/10/06 19:59:24;;;;;;;12.50;4.15;;;;;;;14.91;76.05;100875.81;10247145;28;20055;-78
2023/10/06 20:04:26;;;;;;;9.73;3.88;;;;;;;14.69;76.79;100882.34;10270748;28;20035;-78
2023/10/06 20:09:31;;;;;;;12.05;4.63;;;;;;;14.69;77.00;100876.06;10258084;28;20778;-80
2023/10/06 20:14:35;;;;;;;11.27;4.75;;;;;;;14.82;76.89;100882.09;10250170;28;20043;-78
2023/10/06 20:19:38;;;;;;;7.88;4.43;;;;;;;14.88;76.37;100868.00;10259856;28;20043;-78
2023/10/06 20:24:42;;;;;;;11.88;4.18;;;;;;;14.98;75.91;100862.59;10251523;28;20406;-78
2023/10/06 20:29:45;;;;;;;14.13;5.20;;;;;;;14.88;76.42;100868.00;10238885;28;20062;-78
2023/10/06 20:34:49;;;;;;;13.75;4.43;;;;;;;14.77;77.00;100868.97;10268136;28;20038;-78
2023/10/06 20:39:55;;;;;;;10.43;4.32;;;;;;;14.77;77.26;100857.31;10249515;28;20046;-78
2023/10/06 20:44:58;;;;;;;10.75;4.88;;;;;;;14.69;78.17;100871.53;10259098;28;21117;-79
2023/10/06 20:50:07;;;;;;;10.95;4.22;;;;;;;14.37;79.18;100868.97;10258298;28;21201;-78
2023/10/06 20:55:14;;;;;;;11.07;4.95;;;;;;;14.46;78.65;100873.59;10261514;28;20047;-78
2023/10/06 21:00:21;;;;;;;11.30;4.43;;;;;;;14.69;78.14;100876.91;10258026;28;20399;-78
2023/10/06 21:05:24;;;;;;;15.00;5.40;;;;;;;14.78;77.69;100867.13;10244144;28;20055;-78
2023/10/06 21:10:29;;;;;;;14.38;5.10;;;;;;;14.68;78.44;100863.56;10252664;28;20090;-77
2023/10/06 21:15:34;;;;;;;13.85;4.38;;;;;;;14.63;78.51;100877.50;10253138;28;20097;-79
2023/10/06 21:20:37;;;;;;;15.13;5.43;;;;;;;14.68;78.58;100877.94;10253295;28;20051;-79
2023/10/06 21:25:44;;;;;;;14.82;5.78;;;;;;;14.75;78.57;100889.03;10262363;28;20047;-78
2023/10/06 21:30:48;;;;;;;12.70;5.55;;;;;;;14.65;78.98;100889.03;10264055;28;20050;-79
2023/10/06 21:35:51;;;;;;;16.30;5.40;;;;;;;14.72;78.19;100889.31;10253963;28;20055;-79
2023/10/06 21:40:59;;;;;;;13.68;6.00;;;;;;;14.53;79.41;100877.44;10251699;28;20054;-79
2023/10/06 21:46:04;;;;;;;13.88;5.80;;;;;;;14.61;79.20;100857.84;10248489;28;20814;-77
2023/10/06 21:51:08;;;;;;;10.50;5.30;;;;;;;14.72;78.20;100873.94;10254314;28;20039;-79
2023/10/06 21:56:13;;;;;;;16.10;6.43;;;;;;;14.41;80.12;100866.91;10253222;28;20055;-78
2023/10/06 22:01:19;;;;;;;14.82;5.63;;;;;;;14.58;79.44;100858.13;10251278;28;20913;-78
2023/10/06 22:06:23;;;;;;;7.18;3.90;;;;;;;14.02;81.78;100853.22;10251063;28;20113;-79
2023/10/06 22:11:28;;;;;;;13.85;5.28;;;;;;;14.29;81.16;100855.28;10251475;28;20062;-78
2023/10/06 22:16:31;;;;;;;10.95;5.00;;;;;;;14.39;80.92;100850.81;10262928;28;20046;-79
2023/10/06 22:21:34;;;;;;;10.65;5.30;;;;;;;14.26;81.23;100852.88;10258974;28;20966;-79
2023/10/06 22:26:38;;;;;;;13.95;5.65;;;;;;;14.28;81.81;100856.31;10245013;28;20118;-76
2023/10/06 22:31:41;;;;;;;9.77;5.50;;;;;;;13.88;83.25;100839.09;10251532;28;20070;-79
2023/10/06 22:36:48;;;;;;;16.92;6.40;;;;;;;14.16;82.83;100845.59;10259170;28;21427;-78
2023/10/06 22:41:58;;;;;;;14.02;6.38;;;;;;;13.88;83.51;100841.78;10255832;28;20055;-78
2023/10/06 22:47:01;;;;;;;16.35;6.85;;;;;;;14.42;81.36;100847.84;10264049;28;20051;-77
2023/10/06 22:52:05;;;;;;;13.77;6.40;;;;;;;14.32;82.36;100836.97;10254570;28;20058;-79
2023/10/06 22:57:10;;;;;;;12.70;5.90;;;;;;;14.22;82.68;100846.03;10255088;28;20054;-78
2023/10/06 23:02:13;;;;;;;17.38;7.05;;;;;;;14.34;82.13;100828.72;10254479;28;20062;-78
2023/10/06 23:07:16;;;;;;;8.93;4.70;;;;;;;13.74;85.06;100825.94;10253029;28;20058;-78
2023/10/06 23:12:23;;;;;;;12.15;5.88;;;;;;;13.94;84.09;100824.19;10252975;28;20051;-77
2023/10/06 23:17:32;;;;;;;12.52;6.15;;;;;;;13.95;84.17;100817.78;10253503;28;20058;-78
2023/10/06 23:22:37;;;;;;;12.80;6.03;;;;;;;13.88;84.52;100825.59;10251359;28;20058;-78
2023/10/06 23:27:43;;;;;;;12.68;5.18;;;;;;;13.86;84.79;100808.66;10265038;28;20053;-78
2023/10/06 23:32:50;;;;;;;14.38;6.63;;;;;;;14.04;84.06;100813.41;10269132;28;20050;-79
2023/10/06 23:37:55;;;;;;;10.77;5.63;;;;;;;13.49;86.81;100819.09;10263354;28;20046;-79